Time;durP1;ratioP1;P1;durP2;ratioP2;P2;SDS_P1;SDS_P2;PMS_P1;PMS_P2;Temp;Humidity;BMP_temperature;BMP_pressure;BME280_temperature;BME280_humidity;BME280_pressure;Samples;Min_cycle;Max_cycle;Signal;HPM_P1;HPM_P2
2023/07/11 00:00:00;;;;;;;;;;;29.10;89.70;;;;;;4843125;29;20380;-79
2023/07/11 00:02:26;;;;;;;24.08;21.58;;;29.10;90.00;;;;;;4859364;29;20318;-80
2023/07/11 00:04:52;;;;;;;29.25;22.17;;;29.00;90.00;;;;;;4858089;29;20040;-79
2023/07/11 00:07:18;;;;;;;25.08;21.20;;;29.00;90.00;;;;;;4859063;29;20037;-80
2023/07/11 00:09:48;;;;;;;24.27;21.77;;;29.10;90.20;;;;;;4858254;29;20026;-80
2023/07/11 00:12:15;;;;;;;25.83;22.52;;;29.00;90.20;;;;;;4858354;29;20372;-80
2023/07/11 00:14:41;;;;;;;29.65;24.73;;;29.10;90.30;;;;;;4842376;29;20058;-80
2023/07/11 00:17:07;;;;;;;28.53;25.23;;;29.10;90.30;;;;;;4857215;29;20067;-80
2023/07/11 00:19:54;;;;;;;31.52;26.80;;;29.10;90.30;;;;;;4842470;29;20061;-80
2023/07/11 00:22:22;;;;;;;30.15;26.67;;;29.10;89.50;;;;;;4858958;29;20045;-79
2023/07/11 00:24:49;;;;;;;30.35;25.48;;;29.10;90.30;;;;;;4858757;29;20034;-79
2023/07/11 00:27:17;;;;;;;30.20;24.45;;;29.00;90.70;;;;;;4858792;29;20499;-79
2023/07/11 00:29:43;;;;;;;39.38;24.38;;;29.00;90.80;;;;;;4857549;29;20041;-79
2023/07/11 00:32:10;;;;;;;26.27;23.58;;;29.00;91.10;;;;;;4857467;29;20040;-79
2023/07/11 00:34:37;;;;;;;28.08;23.65;;;28.90;91.30;;;;;;4857655;29;20045;-79
2023/07/11 00:37:03;;;;;;;27.63;23.15;;;28.80;92.00;;;;;;4858893;29;20061;-79
2023/07/11 00:39:31;;;;;;;29.45;23.00;;;28.70;91.90;;;;;;4859270;29;20033;-79
2023/07/11 00:41:57;;;;;;;27.27;22.73;;;28.70;92.10;;;;;;4859011;29;20495;-79
2023/07/11 00:44:23;;;;;;;28.65;22.15;;;28.60;92.30;;;;;;4857531;29;20040;-79
2023/07/11 00:46:50;;;;;;;25.88;22.98;;;28.60;92.50;;;;;;4858938;29;20029;-80
2023/07/11 00:49:18;;;;;;;22.70;20.40;;;28.60;92.60;;;;;;4842130;29;20132;-79
2023/07/11 00:52:12;;;;;;;26.50;22.23;;;28.50;92.80;;;;;;4857700;29;20033;-79
2023/07/11 00:54:42;;;;;;;23.30;20.80;;;28.40;92.90;;;;;;4841669;29;20054;-79
2023/07/11 00:57:09;;;;;;;22.33;19.45;;;28.30;93.20;;;;;;4858217;29;20025;-79
2023/07/11 00:59:35;;;;;;;22.55;18.35;;;28.30;93.40;;;;;;4857563;29;20037;-79
2023/07/11 01:02:11;;;;;;;25.15;19.35;;;28.20;93.50;;;;;;4842049;29;20514;-79
2023/07/11 01:04:38;;;;;;;19.55;17.42;;;28.20;93.40;;;;;;4859751;29;20476;-80
2023/07/11 01:07:07;;;;;;;28.00;17.27;;;28.10;93.90;;;;;;4860647;29;20045;-80
2023/07/11 01:09:33;;;;;;;20.42;17.27;;;28.10;93.60;;;;;;4862294;29;20456;-80
2023/07/11 01:12:06;;;;;;;18.60;16.60;;;28.20;93.50;;;;;;4861477;29;20498;-80
2023/07/11 01:14:34;;;;;;;19.75;17.23;;;28.10;93.50;;;;;;4861756;29;20399;-80
2023/07/11 01:17:19;;;;;;;17.90;15.93;;;28.10;93.50;;;;;;4844774;29;20055;-80
2023/07/11 01:19:46;;;;;;;23.95;16.00;;;28.10;93.00;;;;;;4861735;29;20085;-80
2023/07/11 01:22:12;;;;;;;20.20;16.00;;;28.00;93.40;;;;;;4845233;29;20034;-80
2023/07/11 01:24:37;;;;;;;17.73;15.87;;;28.00;93.50;;;;;;4845154;29;20041;-80
2023/07/11 01:27:04;;;;;;;21.20;17.40;;;28.00;93.50;;;;;;4857910;29;20126;-80
2023/07/11 01:29:30;;;;;;;19.13;16.55;;;27.90;93.60;;;;;;4845440;29;20414;-79
2023/07/11 01:31:55;;;;;;;17.90;15.37;;;27.80;93.60;;;;;;4860741;29;20042;-80
2023/07/11 01:34:21;;;;;;;20.87;15.47;;;27.80;93.50;;;;;;4845289;29;20029;-79
2023/07/11 01:36:47;;;;;;;18.40;14.90;;;27.90;93.30;;;;;;4845100;29;20030;-80
2023/07/11 01:39:13;;;;;;;17.37;14.43;;;27.90;93.10;;;;;;4861976;29;20025;-80
2023/07/11 01:41:38;;;;;;;18.17;15.97;;;27.90;92.90;;;;;;4857336;29;20067;-80
2023/07/11 01:44:04;;;;;;;19.33;14.40;;;27.90;92.80;;;;;;4827025;29;20310;-80
2023/07/11 01:46:30;;;;;;;20.08;15.93;;;27.80;92.90;;;;;;4841889;29;20049;-80
2023/07/11 01:48:57;;;;;;;;;;;27.80;92.90;;;;;;4827108;29;20036;-79
2023/07/11 01:51:22;;;;;;;20.15;14.05;;;27.80;92.90;;;;;;4826869;29;19916;-80
2023/07/11 01:53:48;;;;;;;14.93;13.30;;;27.70;92.70;;;;;;4843173;29;20121;-80
2023/07/11 01:56:14;;;;;;;16.27;13.87;;;27.80;92.70;;;;;;4826456;29;20563;-79
2023/07/11 01:58:40;;;;;;;21.23;15.38;;;27.70;92.60;;;;;;4826516;29;20061;-80
2023/07/11 02:01:06;;;;;;;18.07;14.60;;;27.80;92.60;;;;;;4834083;29;20069;-80
2023/07/11 02:03:32;;;;;;;17.40;14.37;;;27.80;92.60;;;;;;4859860;29;20518;-79
2023/07/11 02:05:58;;;;;;;15.93;14.20;;;27.80;92.40;;;;;;4844402;29;20499;-79
2023/07/11 02:08:24;;;;;;;20.27;15.27;;;27.70;92.40;;;;;;4860756;29;20432;-79
2023/07/11 02:10:49;;;;;;;16.00;14.23;;;27.70;92.40;;;;;;4860612;29;20391;-80
2023/07/11 02:13:15;;;;;;;17.37;15.57;;;27.70;92.50;;;;;;4860869;29;20033;-79
2023/07/11 02:15:41;;;;;;;16.47;14.27;;;27.60;92.50;;;;;;4843600;29;20033;-79
2023/07/11 02:18:08;;;;;;;23.60;13.85;;;27.60;92.60;;;;;;4860671;29;20279;-79
2023/07/11 02:20:39;;;;;;;19.90;14.55;;;27.60;92.60;;;;;;4860736;29;20025;-80
2023/07/11 02:23:05;;;;;;;17.30;14.60;;;27.60;92.70;;;;;;4860803;29;20088;-80
2023/07/11 02:25:31;;;;;;;16.40;14.70;;;27.60;92.80;;;;;;4844268;29;20667;-80
2023/07/11 02:27:57;;;;;;;17.33;14.97;;;27.60;92.60;;;;;;4859196;29;20033;-80
2023/07/11 02:30:23;;;;;;;19.07;14.87;;;27.50;92.60;;;;;;4843987;29;20403;-79
2023/07/11 02:32:49;;;;;;;18.55;15.18;;;27.50;92.60;;;;;;4860774;29;20042;-79
2023/07/11 02:35:15;;;;;;;18.20;14.67;;;27.50;92.70;;;;;;4859053;29;20036;-79
2023/07/11 02:37:41;;;;;;;18.90;15.27;;;27.40;92.70;;;;;;4860126;29;20032;-79
2023/07/11 02:40:07;;;;;;;16.87;15.07;;;27.40;92.60;;;;;;4860373;29;20270;-80
2023/07/11 02:42:33;;;;;;;16.25;14.52;;;27.40;92.60;;;;;;4859201;29;20407;-80
2023/07/11 02:44:58;;;;;;;15.67;13.97;;;27.40;92.60;;;;;;4860621;29;20033;-80
2023/07/11 02:47:24;;;;;;;22.40;15.77;;;27.40;92.70;;;;;;4860326;29;20032;-79
2023/07/11 02:49:50;;;;;;;17.60;15.97;;;27.40;92.90;;;;;;4860696;29;20060;-80
2023/07/11 02:52:16;;;;;;;25.60;16.50;;;27.40;93.00;;;;;;4856576;29;20439;-80
2023/07/11 02:54:41;;;;;;;18.37;16.53;;;27.30;92.90;;;;;;4843554;29;20116;-80
2023/07/11 02:57:11;;;;;;;18.53;16.53;;;27.40;92.90;;;;;;4859732;29;20071;-80
2023/07/11 02:59:37;;;;;;;19.73;16.48;;;27.30;92.80;;;;;;4857924;29;20034;-80
2023/07/11 03:02:03;;;;;;;21.70;17.03;;;27.30;92.90;;;;;;4842622;29;20037;-80
2023/07/11 03:04:30;;;;;;;18.27;15.75;;;27.30;93.00;;;;;;4860433;29;20681;-80
2023/07/11 03:06:56;;;;;;;16.77;14.77;;;27.30;93.10;;;;;;4844347;29;20038;-80
2023/07/11 03:09:23;;;;;;;22.58;15.32;;;27.30;93.10;;;;;;4861070;29;20040;-79
2023/07/11 03:11:50;;;;;;;18.67;16.88;;;27.30;93.00;;;;;;4859848;29;20495;-79
2023/07/11 03:14:17;;;;;;;20.23;16.58;;;27.30;93.10;;;;;;4855128;29;20045;-80
2023/07/11 03:16:43;;;;;;;18.52;16.65;;;27.30;93.10;;;;;;4829043;29;20030;-79
2023/07/11 03:19:09;;;;;;;19.05;15.90;;;27.20;93.30;;;;;;4842835;29;20034;-80
2023/07/11 03:21:35;;;;;;;20.38;16.35;;;27.20;93.30;;;;;;4858688;29;20030;-80
2023/07/11 03:24:01;;;;;;;18.52;15.93;;;27.20;93.20;;;;;;4858553;29;20040;-79
2023/07/11 03:26:27;;;;;;;19.98;16.00;;;27.20;93.30;;;;;;4858493;29;20061;-79
2023/07/11 03:28:53;;;;;;;17.33;15.40;;;27.10;93.40;;;;;;4858530;29;20076;-80
2023/07/11 03:31:19;;;;;;;22.50;15.13;;;27.20;93.40;;;;;;4859852;29;20384;-80
2023/07/11 03:33:47;;;;;;;17.83;15.83;;;27.10;93.40;;;;;;4860062;29;20061;-80
2023/07/11 03:36:13;;;;;;;24.35;16.63;;;27.10;93.70;;;;;;4859986;29;20053;-79
2023/07/11 03:38:39;;;;;;;19.73;17.73;;;27.10;93.80;;;;;;4858236;29;20084;-80
2023/07/11 03:41:05;;;;;;;21.13;17.27;;;27.10;93.80;;;;;;4858748;29;20033;-79
2023/07/11 03:43:31;;;;;;;24.50;18.65;;;27.00;93.60;;;;;;4860504;29;20074;-80
2023/07/11 03:45:57;;;;;;;19.45;17.35;;;27.00;93.60;;;;;;4861552;29;20025;-79
2023/07/11 03:48:23;;;;;;;21.57;18.27;;;27.00;93.50;;;;;;4861190;29;20092;-82
2023/07/11 03:50:49;;;;;;;22.13;18.70;;;27.00;93.50;;;;;;4860823;29;20093;-81
2023/07/11 03:53:14;;;;;;;28.87;19.63;;;27.00;93.50;;;;;;4860546;29;20033;-79
2023/07/11 03:55:44;;;;;;;22.30;18.57;;;27.00;93.60;;;;;;4858777;29;20086;-78
2023/07/11 03:58:10;;;;;;;22.08;19.45;;;27.00;93.60;;;;;;4859975;29;20035;-77
2023/07/11 04:00:36;;;;;;;20.05;18.02;;;27.00;93.70;;;;;;4858910;29;20038;-77
2023/07/11 04:03:01;;;;;;;24.20;17.40;;;27.00;93.80;;;;;;4842991;29;20435;-77
2023/07/11 04:05:28;;;;;;;21.60;19.37;;;27.00;93.90;;;;;;4842878;29;20034;-77
2023/07/11 04:07:54;;;;;;;19.70;17.50;;;26.90;93.90;;;;;;4842708;29;20036;-77
2023/07/11 04:10:20;;;;;;;20.60;18.43;;;26.90;94.00;;;;;;4859547;29;20109;-77
2023/07/11 04:12:46;;;;;;;20.70;18.57;;;26.90;94.00;;;;;;4858231;29;20089;-78
2023/07/11 04:15:13;;;;;;;19.67;17.33;;;26.90;94.10;;;;;;4859523;29;20037;-78
2023/07/11 04:17:39;;;;;;;22.30;16.85;;;26.90;94.10;;;;;;4842711;29;20052;-77
2023/07/11 04:20:06;;;;;;;21.08;18.08;;;26.90;94.20;;;;;;4858618;29;20025;-77
2023/07/11 04:22:32;;;;;;;21.77;18.40;;;26.90;94.20;;;;;;4857818;29;20061;-77
2023/07/11 04:24:58;;;;;;;21.80;18.73;;;27.00;94.00;;;;;;4842815;29;20072;-79
2023/07/11 04:27:25;;;;;;;24.83;21.03;;;27.00;93.80;;;;;;4842659;29;20041;-77
2023/07/11 04:29:51;;;;;;;22.08;19.67;;;27.00;93.60;;;;;;4842786;29;20086;-77
2023/07/11 04:32:17;;;;;;;24.65;19.55;;;27.00;93.40;;;;;;4858069;29;20037;-77
2023/07/11 04:34:43;;;;;;;22.80;19.33;;;27.10;93.20;;;;;;4859434;29;20025;-77
2023/07/11 04:37:09;;;;;;;26.73;19.60;;;27.10;93.10;;;;;;4859003;29;20029;-77
2023/07/11 04:39:35;;;;;;;21.80;19.60;;;27.10;93.10;;;;;;4860177;29;20121;-77
2023/07/11 04:42:00;;;;;;;24.40;19.13;;;27.10;93.50;;;;;;4846399;29;20430;-77
2023/07/11 04:44:26;;;;;;;27.50;20.40;;;27.10;93.80;;;;;;4846156;29;20124;-78
2023/07/11 04:46:52;;;;;;;22.70;20.02;;;27.10;94.10;;;;;;4846054;29;20034;-78
2023/07/11 04:49:18;;;;;;;32.33;19.43;;;27.10;94.10;;;;;;4846307;29;20449;-78
2023/07/11 04:51:44;;;;;;;24.10;19.13;;;27.20;93.80;;;;;;4862686;29;20096;-77
2023/07/11 04:54:10;;;;;;;21.87;19.37;;;27.20;94.80;;;;;;4862683;29;20073;-77
2023/07/11 04:56:39;;;;;;;21.90;18.03;;;27.10;95.00;;;;;;4886570;23;20033;-84
2023/07/11 04:59:04;;;;;;;25.42;19.20;;;27.10;95.00;;;;;;4864182;29;20037;-85
2023/07/11 05:01:30;;;;;;;22.87;19.63;;;27.20;94.70;;;;;;4864579;29;20508;-86
2023/07/11 05:03:56;;;;;;;20.57;18.37;;;27.20;93.90;;;;;;4880052;29;20040;-85
2023/07/11 05:06:22;;;;;;;20.73;18.33;;;27.30;93.50;;;;;;4880316;29;20112;-84
2023/07/11 05:08:48;;;;;;;20.85;17.27;;;27.40;93.30;;;;;;4881309;29;20116;-84
2023/07/11 05:11:17;;;;;;;21.73;19.00;;;27.40;93.00;;;;;;4849147;29;20132;-84
2023/07/11 05:13:45;;;;;;;23.30;19.90;;;27.50;92.50;;;;;;4864598;29;20037;-84
2023/07/11 05:16:14;;;;;;;22.63;19.50;;;27.50;92.40;;;;;;4881161;29;20031;-85
2023/07/11 05:18:40;;;;;;;22.70;19.98;;;27.50;92.60;;;;;;4881195;29;20033;-84
2023/07/11 05:21:11;;;;;;;26.02;20.65;;;27.60;92.30;;;;;;4864757;29;20116;-83
2023/07/11 05:23:37;;;;;;;26.90;20.38;;;27.60;92.10;;;;;;4849088;29;20029;-85
2023/07/11 05:26:05;;;;;;;23.25;20.63;;;27.70;92.50;;;;;;4864355;29;20033;-85
2023/07/11 05:28:31;;;;;;;28.30;19.50;;;27.70;92.30;;;;;;4849246;29;20122;-84
2023/07/11 05:31:01;;;;;;;23.25;19.95;;;27.70;92.50;;;;;;4881000;29;20398;-85
2023/07/11 05:33:27;;;;;;;24.73;19.75;;;27.80;92.00;;;;;;4864763;29;20089;-84
2023/07/11 05:36:08;;;;;;;23.60;19.52;;;27.80;92.10;;;;;;4864799;29;20482;-84
2023/07/11 05:38:34;;;;;;;26.85;19.33;;;27.90;91.90;;;;;;4881491;29;20037;-84
2023/07/11 05:41:01;;;;;;;20.95;18.70;;;27.90;92.00;;;;;;4880922;29;20498;-83
2023/07/11 05:43:27;;;;;;;22.38;20.05;;;27.90;92.10;;;;;;4864489;29;20128;-84
2023/07/11 05:45:53;;;;;;;19.70;17.60;;;28.00;92.10;;;;;;4848933;29;20316;-84
2023/07/11 05:48:19;;;;;;;19.70;17.60;;;28.00;92.00;;;;;;4848708;29;20410;-83
2023/07/11 05:50:45;;;;;;;20.87;18.57;;;28.00;92.00;;;;;;4880156;29;20112;-84
2023/07/11 05:53:10;;;;;;;24.50;19.43;;;28.00;92.10;;;;;;4848149;29;20080;-83
2023/07/11 05:55:36;;;;;;;25.33;18.27;;;28.10;92.10;;;;;;4864358;29;20037;-84
2023/07/11 05:58:02;;;;;;;20.03;17.93;;;28.10;92.10;;;;;;4880207;29;20288;-83
2023/07/11 06:00:28;;;;;;;26.07;18.43;;;28.10;92.60;;;;;;4864019;29;20513;-83
2023/07/11 06:02:54;;;;;;;22.97;17.97;;;28.20;92.70;;;;;;4864000;29;20065;-84
2023/07/11 06:05:19;;;;;;;22.87;18.73;;;28.20;92.80;;;;;;4863829;29;20195;-86
2023/07/11 06:07:47;;;;;;;21.17;18.50;;;28.30;93.00;;;;;;4880670;29;20546;-84
2023/07/11 06:10:13;;;;;;;23.92;18.10;;;28.30;93.00;;;;;;4866282;29;20029;-84
2023/07/11 06:12:38;;;;;;;20.83;16.40;;;28.40;92.80;;;;;;4883730;29;20040;-83
2023/07/11 06:15:05;;;;;;;22.67;17.33;;;28.50;92.70;;;;;;4852615;29;20495;-84
2023/07/11 06:17:31;;;;;;;20.10;16.60;;;28.50;92.70;;;;;;4884931;29;20443;-84
2023/07/11 06:19:56;;;;;;;19.75;16.63;;;28.50;92.70;;;;;;4866844;29;20033;-84
2023/07/11 06:22:22;;;;;;;21.43;17.83;;;28.60;92.70;;;;;;4863364;29;20037;-84
2023/07/11 06:24:48;;;;;;;23.23;17.97;;;28.60;92.70;;;;;;4864515;29;20033;-84
2023/07/11 06:27:14;;;;;;;18.57;15.77;;;28.60;93.10;;;;;;4848453;29;20046;-86
2023/07/11 06:29:40;;;;;;;19.07;15.50;;;28.70;92.80;;;;;;4865319;29;20040;-84
2023/07/11 06:32:06;;;;;;;20.20;15.43;;;28.70;92.70;;;;;;4881080;29;20037;-84
2023/07/11 06:34:32;;;;;;;;;;;28.80;92.60;;;;;;4882735;29;20447;-88
2023/07/11 06:36:58;;;;;;;18.85;15.70;;;28.80;92.50;;;;;;4880502;29;20007;-84
2023/07/11 06:39:25;;;;;;;21.17;16.43;;;28.90;92.60;;;;;;4881165;29;20052;-84
2023/07/11 06:41:50;;;;;;;21.65;15.73;;;28.90;92.30;;;;;;4863866;29;20778;-84
2023/07/11 06:44:24;;;;;;;22.15;15.98;;;28.90;92.30;;;;;;4863961;29;20502;-84
2023/07/11 06:46:49;;;;;;;22.63;14.27;;;28.90;92.50;;;;;;4863573;29;20047;-84
2023/07/11 06:49:15;;;;;;;17.03;15.27;;;29.00;91.80;;;;;;4863789;29;20041;-84
2023/07/11 06:51:41;;;;;;;18.97;16.03;;;29.00;91.70;;;;;;4863054;29;20401;-83
2023/07/11 06:54:07;;;;;;;25.20;15.00;;;29.00;91.90;;;;;;4862914;29;20077;-84
2023/07/11 06:56:33;;;;;;;18.40;14.27;;;29.10;91.80;;;;;;4866215;29;20518;-84
2023/07/11 06:58:59;;;;;;;17.08;14.70;;;29.10;91.60;;;;;;4881278;29;20273;-84
2023/07/11 07:01:25;;;;;;;18.27;16.00;;;29.20;91.30;;;;;;4880310;29;20117;-85
2023/07/11 07:03:51;;;;;;;25.67;18.90;;;29.20;91.50;;;;;;4881175;29;20268;-85
2023/07/11 07:06:17;;;;;;;21.43;16.97;;;29.30;91.50;;;;;;4862857;29;20485;-84
2023/07/11 07:08:43;;;;;;;20.42;15.25;;;29.30;91.40;;;;;;4863067;29;20037;-82
2023/07/11 07:11:10;;;;;;;13.70;12.27;;;29.40;91.10;;;;;;4862562;29;20045;-87
2023/07/11 07:13:35;;;;;;;;;;;29.40;90.90;;;;;;4847065;29;20119;-84
2023/07/11 07:16:03;;;;;;;16.40;12.30;;;29.40;90.40;;;;;;4865247;29;19986;-84
2023/07/11 07:18:34;;;;;;;13.82;12.13;;;29.40;90.30;;;;;;4862800;29;20095;-84
2023/07/11 07:21:02;;;;;;;16.80;11.82;;;29.50;89.70;;;;;;4883008;29;20036;-83
2023/07/11 07:23:28;;;;;;;15.18;12.70;;;29.50;89.50;;;;;;4847091;29;20622;-84
2023/07/11 07:25:56;;;;;;;17.38;11.75;;;29.60;89.10;;;;;;4880148;29;20037;-84
2023/07/11 07:28:23;;;;;;;16.75;12.52;;;29.60;88.60;;;;;;4863795;29;20045;-84
2023/07/11 07:30:51;;;;;;;;;;;29.70;87.40;;;;;;4862825;29;20403;-84
2023/07/11 07:33:17;;;;;;;16.27;11.55;;;29.70;86.60;;;;;;4863745;29;19916;-85
2023/07/11 07:35:43;;;;;;;20.85;13.02;;;29.70;87.60;;;;;;4862742;29;20036;-85
2023/07/11 07:38:10;;;;;;;15.10;11.75;;;29.70;87.60;;;;;;4862234;29;20165;-84
2023/07/11 07:40:37;;;;;;;18.13;11.23;;;29.80;88.20;;;;;;4862449;29;20044;-85
2023/07/11 07:43:03;;;;;;;13.57;10.60;;;29.80;88.20;;;;;;4878913;29;20025;-84
2023/07/11 07:45:29;;;;;;;13.13;8.57;;;29.90;87.20;;;;;;4862079;29;20113;-83
2023/07/11 07:47:54;;;;;;;13.20;9.75;;;29.90;85.00;;;;;;4864100;29;20057;-84
2023/07/11 07:50:21;;;;;;;10.87;9.73;;;30.00;85.10;;;;;;4847044;29;20402;-84
2023/07/11 07:52:46;;;;;;;;;;;30.00;84.10;;;;;;4863167;29;20041;-84
2023/07/11 07:55:12;;;;;;;12.50;8.95;;;30.00;82.10;;;;;;4880403;29;20353;-84
2023/07/11 07:57:38;;;;;;;8.95;7.82;;;30.00;83.70;;;;;;4862279;29;20037;-84
2023/07/11 08:00:05;;;;;;;14.82;10.15;;;30.10;83.30;;;;;;4846946;29;20029;-83
2023/07/11 08:02:31;;;;;;;14.63;9.85;;;30.10;82.80;;;;;;4879960;29;20743;-84
2023/07/11 08:04:58;;;;;;;13.20;9.50;;;30.10;83.40;;;;;;4879935;29;20037;-84
2023/07/11 08:07:26;;;;;;;17.13;10.95;;;30.20;83.20;;;;;;4878966;29;20491;-85
2023/07/11 08:09:55;;;;;;;13.95;11.02;;;30.20;83.20;;;;;;4862487;29;20042;-84
2023/07/11 08:12:21;;;;;;;13.55;10.00;;;30.20;83.60;;;;;;4861598;29;20037;-84
2023/07/11 08:14:47;;;;;;;13.38;10.13;;;30.30;83.80;;;;;;4863616;29;20037;-84
2023/07/11 08:17:13;;;;;;;10.70;9.60;;;30.20;83.00;;;;;;4865548;29;20033;-84
2023/07/11 08:19:39;;;;;;;10.80;9.77;;;30.30;82.40;;;;;;4884187;29;20036;-84
2023/07/11 08:22:06;;;;;;;19.13;10.25;;;30.30;82.60;;;;;;4867076;29;20465;-84
2023/07/11 08:24:32;;;;;;;11.50;9.05;;;30.40;82.10;;;;;;4866660;29;20037;-84
2023/07/11 08:26:58;;;;;;;16.05;10.48;;;30.40;82.90;;;;;;4865950;29;20032;-84
2023/07/11 08:29:24;;;;;;;16.00;11.75;;;30.50;83.20;;;;;;4868313;29;20029;-84
2023/07/11 08:31:50;;;;;;;14.88;10.13;;;30.70;83.50;;;;;;4883233;29;20443;-84
2023/07/11 08:34:15;;;;;;;13.35;10.38;;;30.70;81.60;;;;;;4866271;29;20037;-84
2023/07/11 08:36:43;;;;;;;10.75;8.98;;;30.70;82.50;;;;;;4865738;29;20029;-84
2023/07/11 08:39:09;;;;;;;11.52;9.65;;;30.80;82.60;;;;;;4866032;29;20033;-84
2023/07/11 08:41:38;;;;;;;14.70;9.13;;;30.80;80.90;;;;;;4865898;29;20037;-84
2023/07/11 08:44:11;;;;;;;24.35;11.30;;;30.80;81.80;;;;;;4865972;29;20104;-84
2023/07/11 08:46:49;;;;;;;22.38;10.13;;;30.90;82.10;;;;;;4865012;29;20037;-84
2023/07/11 08:49:25;;;;;;;13.10;9.02;;;30.90;81.80;;;;;;4865052;29;20407;-85
2023/07/11 08:51:55;;;;;;;15.30;10.90;;;31.00;81.20;;;;;;4881720;29;20401;-84
2023/07/11 08:55:02;;;;;;;18.80;11.38;;;31.00;79.80;;;;;;4881647;29;20065;-84
2023/07/11 08:57:33;;;;;;;14.60;9.60;;;31.00;79.20;;;;;;4823813;29;20038;-83
2023/07/11 09:00:14;;;;;;;14.43;10.52;;;31.00;80.50;;;;;;4809091;29;20053;-85
2023/07/11 09:03:06;;;;;;;11.90;9.18;;;31.10;79.60;;;;;;4844306;29;20095;-84
2023/07/11 09:05:51;;;;;;;16.50;9.50;;;31.20;80.10;;;;;;4882434;29;20044;-84
2023/07/11 09:08:18;;;;;;;18.65;10.40;;;31.20;79.80;;;;;;4850141;29;20041;-84
2023/07/11 09:11:27;;;;;;;18.75;11.68;;;31.30;79.40;;;;;;4865665;29;20025;-84
2023/07/11 09:14:08;;;;;;;29.23;10.13;;;31.40;77.20;;;;;;4851124;29;20041;-85
2023/07/11 09:16:36;;;;;;;17.23;10.00;;;31.30;78.60;;;;;;4881298;29;20028;-84
2023/07/11 09:19:14;;;;;;;15.25;8.52;;;31.40;78.70;;;;;;4866126;29;20037;-84
2023/07/11 09:22:02;;;;;;;16.80;10.38;;;31.50;79.50;;;;;;4886753;29;20060;-85
2023/07/11 09:24:42;;;;;;;14.52;8.65;;;31.60;78.50;;;;;;4882613;29;20089;-84
2023/07/11 09:27:15;;;;;;;15.98;10.82;;;31.60;77.20;;;;;;4864040;29;20037;-84
2023/07/11 09:29:45;;;;;;;13.40;11.10;;;31.70;77.00;;;;;;4880978;29;20047;-84
2023/07/11 09:32:12;;;;;;;15.63;10.23;;;31.70;76.00;;;;;;4864338;29;20044;-84
2023/07/11 09:35:03;;;;;;;12.80;10.85;;;31.60;76.50;;;;;;4864892;29;20040;-84
2023/07/11 09:37:41;;;;;;;16.23;11.65;;;31.70;77.70;;;;;;4863384;29;20101;-84
2023/07/11 09:40:32;;;;;;;13.27;10.35;;;31.70;77.30;;;;;;4864088;29;20033;-84
2023/07/11 09:42:59;;;;;;;11.95;9.90;;;31.80;77.50;;;;;;4881001;29;20033;-84
2023/07/11 09:45:34;;;;;;;15.40;11.02;;;31.90;77.90;;;;;;4881018;29;20029;-83
2023/07/11 09:48:27;;;;;;;15.32;10.18;;;31.90;76.20;;;;;;4863902;29;20033;-84
2023/07/11 09:51:24;;;;;;;20.23;9.40;;;31.90;75.40;;;;;;4874984;29;20402;-84
2023/07/11 09:53:55;;;;;;;18.58;11.05;;;32.10;76.90;;;;;;4880613;29;20107;-85
2023/07/11 09:56:24;;;;;;;19.33;11.43;;;32.20;76.60;;;;;;4863777;29;20036;-84
2023/07/11 09:58:53;;;;;;;12.80;10.57;;;32.10;74.10;;;;;;4880371;29;20123;-84
2023/07/11 10:01:22;;;;;;;14.50;9.90;;;32.20;74.70;;;;;;4880788;29;20033;-84
2023/07/11 10:03:48;;;;;;;18.52;10.77;;;32.30;75.10;;;;;;4864902;29;20033;-86
2023/07/11 10:06:41;;;;;;;17.42;11.60;;;32.30;74.10;;;;;;4864072;29;20033;-85
2023/07/11 10:09:30;;;;;;;15.48;10.25;;;32.30;72.40;;;;;;4864425;29;20127;-84
2023/07/11 10:12:11;;;;;;;11.90;10.68;;;32.30;74.50;;;;;;4880457;29;20033;-84
2023/07/11 10:14:43;;;;;;;17.55;12.13;;;32.40;75.90;;;;;;4848408;29;20410;-84
2023/07/11 10:17:25;;;;;;;14.70;13.05;;;32.50;74.30;;;;;;4878471;29;20037;-83
2023/07/11 10:19:56;;;;;;;22.70;13.63;;;32.60;74.20;;;;;;4863481;29;20582;-85
2023/07/11 10:22:26;;;;;;;17.85;13.73;;;32.60;73.60;;;;;;4848483;29;20071;-86
2023/07/11 10:25:02;;;;;;;15.45;10.32;;;32.60;73.90;;;;;;4848770;29;20037;-84
2023/07/11 10:27:36;;;;;;;12.93;10.00;;;32.70;76.20;;;;;;4859403;29;20092;-84
2023/07/11 10:30:03;;;;;;;13.00;10.40;;;32.90;75.00;;;;;;4878811;29;20033;-85
2023/07/11 10:32:29;;;;;;;13.10;9.75;;;32.90;73.10;;;;;;4863829;29;20029;-84
2023/07/11 10:34:58;;;;;;;16.85;10.75;;;33.10;71.30;;;;;;4864310;29;20561;-84
2023/07/11 10:37:32;;;;;;;20.27;11.90;;;33.10;72.20;;;;;;4880118;29;20029;-84
2023/07/11 10:40:28;;;;;;;16.58;14.77;;;33.20;72.10;;;;;;4881117;29;20439;-84
2023/07/11 10:43:21;;;;;;;17.95;11.77;;;33.20;70.70;;;;;;4853281;29;20049;-84
2023/07/11 10:45:50;;;;;;;20.38;11.30;;;33.10;70.50;;;;;;4865657;29;20116;-84
2023/07/11 10:48:32;;;;;;;16.15;11.75;;;33.20;71.30;;;;;;4879409;29;20108;-84
2023/07/11 10:51:11;;;;;;;16.77;10.93;;;33.20;69.20;;;;;;4853652;29;20045;-84
2023/07/11 10:53:56;;;;;;;15.77;12.50;;;33.20;71.30;;;;;;4861362;29;20088;-84
2023/07/11 10:56:27;;;;;;;15.18;12.23;;;33.30;71.80;;;;;;4879587;29;20044;-84
2023/07/11 10:58:54;;;;;;;19.77;12.05;;;33.40;72.00;;;;;;4864714;29;20506;-84
2023/07/11 11:01:57;;;;;;;14.57;10.90;;;33.50;73.40;;;;;;4879747;29;20037;-84
2023/07/11 11:04:48;;;;;;;13.98;12.05;;;33.70;72.20;;;;;;4879857;29;20043;-84
2023/07/11 13:14:10;;;;;;;9.75;6.65;;;37.40;60.80;;;;;;4880119;29;20071;-80
2023/07/11 13:16:40;;;;;;;10.10;7.53;;;37.60;58.70;;;;;;4873364;29;20109;-81
2023/07/11 13:19:14;;;;;;;11.45;6.82;;;37.90;56.50;;;;;;4875413;29;20050;-81
2023/07/11 13:21:43;;;;;;;12.38;6.18;;;38.30;57.60;;;;;;4872198;29;20038;-80
2023/07/11 13:24:12;;;;;;;10.48;6.75;;;38.90;55.50;;;;;;4847837;29;20034;-81
2023/07/11 13:26:38;;;;;;;10.98;6.80;;;39.80;53.90;;;;;;4894692;23;20044;-84
2023/07/11 13:29:17;;;;;;;8.68;6.45;;;40.60;51.90;;;;;;4887146;29;20154;-84
2023/07/11 13:31:46;;;;;;;9.00;7.22;;;41.60;49.00;;;;;;4871759;29;20041;-84
2023/07/11 13:34:18;;;;;;;7.00;5.60;;;42.50;49.30;;;;;;4904521;29;20393;-84
2023/07/11 13:36:49;;;;;;;8.20;6.13;;;43.20;47.70;;;;;;4886567;29;20095;-85
2023/07/11 13:39:33;;;;;;;12.13;6.13;;;43.80;47.20;;;;;;4903989;29;20029;-84
2023/07/11 13:42:02;;;;;;;10.52;6.50;;;44.50;45.20;;;;;;4899083;29;20037;-85
2023/07/11 13:44:35;;;;;;;8.38;6.45;;;45.00;46.10;;;;;;4889690;29;20029;-86
2023/07/11 13:47:22;;;;;;;27.15;7.63;;;45.70;44.70;;;;;;4903193;29;20031;-85
2023/07/11 13:50:06;;;;;;;11.18;5.38;;;46.20;42.40;;;;;;4901462;29;20032;-85
2023/07/11 13:52:34;;;;;;;11.15;6.40;;;46.60;42.50;;;;;;4882748;29;20060;-85
2023/07/11 13:55:14;;;;;;;11.70;4.78;;;47.10;41.80;;;;;;4882485;29;20021;-85
2023/07/11 13:57:40;;;;;;;23.25;6.15;;;47.80;39.30;;;;;;4877201;29;20039;-85
2023/07/11 14:00:07;;;;;;;13.07;5.28;;;48.20;39.60;;;;;;4881612;29;20505;-85
2023/07/11 14:02:36;;;;;;;14.35;5.68;;;48.80;38.30;;;;;;4898484;29;20517;-85
2023/07/11 14:05:04;;;;;;;8.73;5.68;;;48.90;39.30;;;;;;4881736;29;20123;-85
2023/07/11 14:07:30;;;;;;;9.95;5.38;;;49.10;37.80;;;;;;4898110;29;20032;-85
2023/07/11 14:09:55;;;;;;;9.63;5.97;;;49.40;38.20;;;;;;4880333;29;20028;-85
2023/07/11 14:12:21;;;;;;;6.50;5.25;;;49.80;37.70;;;;;;4880620;29;20154;-85
2023/07/11 14:14:47;;;;;;;10.50;6.13;;;49.50;37.70;;;;;;4898642;29;20059;-85
2023/07/11 14:17:17;;;;;;;14.85;5.35;;;49.80;37.90;;;;;;4897857;29;20016;-85
2023/07/11 14:19:43;;;;;;;17.50;6.28;;;50.30;37.80;;;;;;4881584;29;20464;-85
2023/07/11 14:22:22;;;;;;;11.98;6.55;;;50.60;37.30;;;;;;4881104;29;20127;-85
2023/07/11 14:24:48;;;;;;;13.10;6.28;;;50.90;40.20;;;;;;4893259;29;20036;-85
2023/07/11 14:27:16;;;;;;;13.98;6.50;;;51.30;37.60;;;;;;4881006;29;20032;-85
2023/07/11 14:29:42;;;;;;;9.82;6.15;;;51.50;37.80;;;;;;4865844;29;20038;-85
2023/07/11 14:32:18;;;;;;;11.32;6.22;;;51.60;36.90;;;;;;4875964;29;20033;-86
2023/07/11 14:34:44;;;;;;;10.60;6.47;;;51.80;35.70;;;;;;4877694;29;20025;-86
2023/07/11 14:37:17;;;;;;;10.90;5.90;;;51.90;36.00;;;;;;4878610;29;20084;-87
2023/07/11 14:39:47;;;;;;;12.10;5.90;;;52.00;36.10;;;;;;4862740;29;20033;-87
2023/07/11 14:42:26;;;;;;;8.77;6.00;;;51.90;36.50;;;;;;4879350;29;20037;-86
2023/07/11 14:44:56;;;;;;;8.52;6.13;;;52.00;36.90;;;;;;4862583;29;20041;-87
2023/07/11 14:47:22;;;;;;;11.48;6.22;;;51.30;35.30;;;;;;4862373;29;20059;-87